To NAV CANADA Home Page Login to a new session Search on AWWS site Disclaimer Vers la page française équivalente Tips FAQ What's new on the site To the Forecasts and Observations / NOTAM section To "File a Flight Plan" website Publications and other links Update of the User's profile FIC Telephone Numbers My Weather Data Folder Route Weather Data Regional Weather Data Local Weather Data To the Forecasts and Observations / NOTAM section
Request Generated 11/13/2018 at 18:13:49 UTC . Weather information available at that time is displayed.

METAR/TAF

WIARTON/ON    

METAR CYVV 131800Z 19002KT 4SM -SN OVC016 M03/M05 A3012 RMK SC8 VIS VRB 3-5 SLP211=
SPECI CYVV 131746Z 19003KT 180V250 4SM -SN OVC016 M03/M05 A3012 RMK SC8 VIS VRB 3-5 SLP213=
SPECI CYVV 131712Z 28006KT 3/4SM -SN OVC016 M03/M05 A3014 RMK SC8 VIS VRB 1/2 - 1 SLP218=
SPECI CYVV 131708Z 29009KT 2SM -SN OVC016 M02/M05 A3014 RMK SC8 VIS VRB 1-3 SLP218=
METAR CYVV 131700Z 28010KT 4SM -SN OVC016 M02/M06 A3014 RMK SC8 VIS VRB 3-5 SLP217=
SPECI CYVV 131635Z 00000KT 4SM -SN OVC016 M02/M06 A3014 RMK SC8 VIS VRB 3-5 SLP217=
SPECI CYVV 131621Z 03005KT 310V050 8SM -SN OVC020 M02/M06 A3014 RMK SC8 SLP218=
METAR CYVV 131600Z 35004KT 280V050 15SM SCT012 BKN020 BKN070 M01/M06 A3013 RMK SF4SC2AC1 SLP216=

TAF CYVV 131338Z 1314/1324 02005KT 6SM -SHSN OVC030 TEMPO 1314/1317
2SM -SHSN OVC015 PROB40 1314/1317 1SM -SN VV010
FM131700 31012G22KT 3/4SM -SHSN VV008 TEMPO 1317/1320 3SM -SHSN
OVC025
FM132000 28010G20KT P6SM BKN030 TEMPO 1320/1324 2SM -SHSN BKN020
PROB30 1322/1324 3/4SM -SHSN VV008
RMK NXT FCST BY 132000Z=
Your time UTC time
Weather data provided by Environment Canada and NAV CANADA